This is the latest recevied weather packets stored in our database for station/object IZ3TCG-13. If no packets are shown the sender has not sent any weather packets the latest 10 day(s).
| Time | Temp. | Humidity | Pressure | Rain* | Wind** | Luminosity | Snow |
|---|---|---|---|---|---|---|---|
| 1777986724 | 16.67° C | 87% | 1012.2 hPa | 0 mm | - | - | - |
| 1777985524 | 16.11° C | 89% | 1012.2 hPa | 0 mm | - | - | - |
| 1777982164 | 16.67° C | 86% | 1012.6 hPa | 0 mm | - | - | - |
| 1777981204 | 16.67° C | 84% | 1012.6 hPa | 0 mm | - | - | - |
| 1777978213 | 16.67° C | 86% | 1012.5 hPa | 0.25 mm | - | - | - |
| 1777977844 | 16.67° C | 86% | 1012.6 hPa | 0.25 mm | - | - | - |
| 1777975683 | 16.67° C | 82% | 1012.9 hPa | 0.25 mm | - | - | - |
| 1777974484 | 16.11° C | 87% | 1010.5 hPa | 1.02 mm | - | - | - |
| 1777973284 | 15.56° C | 90% | 1010.1 hPa | 1.27 mm | - | - | - |
| 1777971844 | 16.67° C | 87% | 1010.2 hPa | 1.02 mm | - | - | - |
| 1777971363 | 16.11° C | 83% | 1010.3 hPa | 0.51 mm | - | - | - |
| 1777970404 | 16.67° C | 84% | 1010.1 hPa | 0 mm | - | - | - |
| 1777969924 | 16.67° C | 80% | 1010 hPa | 0 mm | - | - | - |
| 1777968964 | 16.67° C | 81% | 1010.2 hPa | 0 mm | - | - | - |
| 1777965364 | 15.56° C | 82% | 1010 hPa | 0 mm | - | - | - |
| 1777963924 | 15.56° C | 84% | 1009.8 hPa | 0 mm | - | - | - |
| 1777962723 | 15.56° C | 84% | 1009.8 hPa | 0 mm | - | - | - |
| 1777962483 | 15.56° C | 85% | 1009.9 hPa | 0 mm | - | - | - |
| 1777960564 | 15.56° C | 88% | 1009.4 hPa | 0 mm | - | - | - |
| 1777959844 | 15.56° C | 90% | 1009.4 hPa | 0 mm | - | - | - |
| 1777956484 | 15.56° C | 97% | 1009.1 hPa | 0 mm | - | - | - |
| 1777954323 | 15° C | 97% | 1009.3 hPa | 0 mm | - | - | - |
| 1777952884 | 15.56° C | 96% | 1009.1 hPa | 0 mm | - | - | - |
| 1777952534 | 15.56° C | 96% | 1009.2 hPa | 0 mm | - | - | - |
| 1777950483 | 15° C | 95% | 1009.2 hPa | 0 mm | - | - | - |
* Rain latest hour (hover to see other rain measurements)
** Current wind speed in m/s (hover to see current wind gust speed)